createdAt,value
2023-04-04T00:00:16.668Z,25.65
2023-04-04T00:02:16.660Z,25.58
2023-04-04T00:04:16.669Z,25.65
2023-04-04T00:06:16.713Z,25.56
2023-04-04T00:08:16.585Z,25.61
2023-04-04T00:10:16.681Z,25.53
2023-04-04T00:12:16.694Z,25.53
2023-04-04T00:14:16.701Z,25.63
2023-04-04T00:16:16.688Z,25.65
2023-04-04T00:18:16.689Z,25.60
2023-04-04T00:20:16.610Z,25.63
2023-04-04T00:22:16.674Z,25.57
2023-04-04T00:24:16.684Z,25.61
2023-04-04T00:26:16.550Z,25.56
2023-04-04T00:28:16.801Z,25.58
2023-04-04T00:30:16.741Z,25.52
2023-04-04T00:32:16.786Z,25.36
2023-04-04T00:34:16.642Z,25.64
2023-04-04T00:36:16.759Z,25.54
2023-04-04T00:38:16.793Z,25.54
2023-04-04T00:40:16.695Z,25.57
2023-04-04T00:42:16.695Z,25.61
2023-04-04T00:44:16.746Z,25.55
2023-04-04T00:46:16.763Z,25.61
2023-04-04T00:48:16.698Z,25.53
2023-04-04T00:50:16.757Z,25.61
2023-04-04T00:52:16.759Z,25.58
2023-04-04T00:54:16.667Z,25.64
2023-04-04T00:56:16.730Z,25.57
2023-04-04T00:58:16.731Z,25.61
2023-04-04T01:00:16.705Z,25.65
2023-04-04T01:02:16.757Z,25.58
2023-04-04T01:04:16.809Z,25.61
2023-04-04T01:06:16.654Z,25.56
2023-04-04T01:08:16.741Z,25.55
2023-04-04T01:10:16.785Z,25.57
2023-04-04T01:12:16.737Z,25.60
2023-04-04T01:14:16.602Z,25.56
2023-04-04T01:16:17.000Z,25.55
2023-04-04T01:18:16.712Z,25.58
2023-04-04T01:20:16.804Z,25.60
2023-04-04T01:22:16.716Z,25.55
2023-04-04T01:24:16.702Z,25.52
2023-04-04T01:26:16.777Z,25.54
2023-04-04T01:28:16.776Z,25.55
2023-04-04T01:30:16.837Z,25.65
2023-04-04T01:32:16.765Z,25.65
2023-04-04T01:34:16.851Z,25.57
2023-04-04T01:36:17.171Z,25.52
2023-04-04T01:38:16.824Z,25.61
2023-04-04T01:40:16.837Z,25.57
2023-04-04T01:42:16.708Z,25.60
2023-04-04T01:44:16.784Z,25.58
2023-04-04T01:46:16.799Z,25.56
2023-04-04T01:48:16.742Z,25.58
2023-04-04T01:50:16.750Z,25.54
2023-04-04T01:52:16.822Z,25.56
2023-04-04T01:54:16.784Z,25.52
2023-04-04T01:56:16.866Z,25.58
2023-04-04T01:58:16.765Z,25.52
2023-04-04T02:00:16.847Z,24.69
2023-04-04T02:02:16.804Z,24.38
2023-04-04T02:04:16.795Z,24.21
2023-04-04T02:06:16.806Z,24.09
2023-04-04T02:08:16.807Z,23.96
2023-04-04T02:10:16.826Z,23.91
2023-04-04T02:12:16.719Z,23.94
2023-04-04T02:14:16.819Z,23.83
2023-04-04T02:16:16.911Z,23.54
2023-04-04T02:18:16.845Z,23.81
2023-04-04T02:20:16.910Z,23.76
2023-04-04T02:22:16.773Z,23.81
2023-04-04T02:24:16.841Z,23.76
2023-04-04T02:26:16.815Z,23.75
2023-04-04T02:28:16.899Z,23.82
2023-04-04T02:30:16.899Z,23.81
2023-04-04T02:32:16.843Z,23.70
2023-04-04T02:34:16.815Z,23.73
2023-04-04T02:36:16.867Z,23.73
2023-04-04T02:38:16.900Z,23.77
2023-04-04T02:40:16.907Z,23.70
2023-04-04T02:42:16.900Z,23.77
2023-04-04T02:44:16.859Z,23.70
2023-04-04T02:46:21.553Z,23.72
2023-04-04T02:48:16.823Z,23.77
2023-04-04T02:50:16.884Z,23.65
2023-04-04T02:52:16.862Z,23.67
2023-04-04T02:54:16.782Z,23.66
2023-04-04T02:56:16.882Z,23.65
2023-04-04T02:58:16.777Z,23.70
2023-04-04T03:00:16.922Z,23.65
2023-04-04T03:02:16.880Z,23.65
2023-04-04T03:04:16.915Z,23.61
2023-04-04T03:06:16.938Z,23.58
2023-04-04T03:08:16.908Z,23.65
2023-04-04T03:10:16.811Z,23.61
2023-04-04T03:12:16.895Z,23.59
2023-04-04T03:14:16.801Z,23.63
2023-04-04T03:16:16.867Z,23.59
2023-04-04T03:18:16.915Z,23.59
2023-04-04T03:20:16.919Z,23.62
2023-04-04T03:22:16.939Z,23.68
2023-04-04T03:24:16.919Z,23.65
2023-04-04T03:26:16.818Z,23.62
2023-04-04T03:28:16.910Z,23.66
2023-04-04T03:30:16.934Z,23.55
2023-04-04T03:32:16.862Z,23.54
2023-04-04T03:34:16.890Z,23.56
2023-04-04T03:36:17.078Z,23.41
2023-04-04T03:38:16.853Z,23.54
2023-04-04T03:40:16.974Z,23.50
2023-04-04T03:42:16.886Z,23.50
2023-04-04T03:44:16.923Z,23.48
2023-04-04T03:46:16.932Z,23.53
2023-04-04T03:48:16.829Z,23.49
2023-04-04T03:50:16.855Z,23.25
2023-04-04T03:52:16.975Z,23.50
2023-04-04T03:54:16.835Z,23.44
2023-04-04T03:56:16.939Z,23.50
2023-04-04T03:58:16.925Z,23.48
2023-04-04T04:00:16.947Z,23.39
2023-04-04T04:02:16.911Z,23.25
2023-04-04T04:04:16.986Z,23.22
2023-04-04T04:06:16.948Z,23.17
2023-04-04T04:08:16.930Z,23.25
2023-04-04T04:10:16.983Z,23.22
2023-04-04T04:12:16.881Z,23.24
2023-04-04T04:14:16.997Z,23.26
2023-04-04T04:16:16.917Z,23.25
2023-04-04T04:18:16.943Z,23.25
2023-04-04T04:20:16.938Z,23.22
2023-04-04T04:22:17.017Z,23.20
2023-04-04T04:24:16.968Z,23.24
2023-04-04T04:26:16.981Z,23.27
2023-04-04T04:28:16.942Z,23.25
2023-04-04T04:30:17.039Z,23.33
2023-04-04T04:32:17.008Z,23.39
2023-04-04T04:34:16.967Z,23.25
2023-04-04T04:36:16.944Z,23.41
2023-04-04T04:38:16.930Z,23.38
2023-04-04T04:40:16.989Z,23.33
2023-04-04T04:42:16.994Z,23.40
2023-04-04T04:44:16.921Z,23.37
2023-04-04T04:46:16.982Z,23.34
2023-04-04T04:48:17.052Z,23.30
2023-04-04T04:50:17.041Z,23.26
2023-04-04T04:52:17.000Z,23.26
2023-04-04T04:54:16.866Z,23.27
2023-04-04T04:56:16.982Z,23.26
2023-04-04T04:58:17.000Z,23.38
2023-04-04T05:00:17.030Z,23.26
2023-04-04T05:02:17.021Z,23.33
2023-04-04T05:04:17.013Z,23.26
2023-04-04T05:06:17.071Z,23.26
2023-04-04T05:08:17.029Z,23.29
2023-04-04T05:10:16.949Z,23.27
2023-04-04T05:12:16.917Z,23.34
2023-04-04T05:14:17.031Z,23.34
2023-04-04T05:16:17.082Z,23.29
2023-04-04T05:18:17.071Z,23.37
2023-04-04T05:20:17.015Z,23.41
2023-04-04T05:22:17.030Z,23.34
2023-04-04T05:24:17.035Z,23.31
2023-04-04T05:26:17.081Z,23.44
2023-04-04T05:28:17.036Z,23.39
2023-04-04T05:30:17.028Z,23.39
2023-04-04T05:32:17.011Z,23.34
2023-04-04T05:34:17.032Z,23.42
2023-04-04T05:36:17.024Z,23.45
2023-04-04T05:38:17.022Z,23.39
2023-04-04T05:40:17.088Z,23.40
2023-04-04T05:42:17.006Z,23.38
2023-04-04T05:44:17.033Z,23.49
2023-04-04T05:46:17.112Z,23.39
2023-04-04T05:48:17.030Z,23.47
2023-04-04T05:50:17.055Z,23.39
2023-04-04T05:52:17.088Z,23.51
2023-04-04T05:54:17.109Z,23.44
2023-04-04T05:56:17.117Z,23.42
2023-04-04T05:58:17.087Z,23.45
2023-04-04T06:00:16.976Z,23.25
2023-04-04T06:02:17.039Z,23.43
2023-04-04T06:04:17.013Z,23.39
2023-04-04T06:06:17.159Z,23.48
2023-04-04T06:08:16.987Z,23.45
2023-04-04T06:10:17.096Z,23.40
2023-04-04T06:12:17.051Z,23.42
2023-04-04T06:14:17.046Z,23.49
2023-04-04T06:16:17.106Z,23.44
2023-04-04T06:18:17.065Z,23.53
2023-04-04T06:20:16.967Z,23.51
2023-04-04T06:22:17.062Z,23.64
2023-04-04T06:24:17.096Z,23.65
2023-04-04T06:26:17.100Z,23.66
2023-04-04T06:28:17.148Z,23.68
2023-04-04T06:30:17.149Z,23.81
2023-04-04T06:32:17.072Z,23.88
2023-04-04T06:34:17.034Z,23.88
2023-04-04T06:36:17.104Z,24.16
2023-04-04T06:38:17.172Z,24.11
2023-04-04T06:40:20.012Z,24.34
2023-04-04T06:42:17.111Z,24.36
2023-04-04T06:44:17.059Z,24.41
2023-04-04T06:46:17.195Z,24.50
2023-04-04T06:48:17.133Z,24.61
2023-04-04T06:50:17.148Z,24.73
2023-04-04T06:52:17.140Z,24.83
2023-04-04T06:54:16.996Z,24.95
2023-04-04T06:56:17.104Z,25.07
2023-04-04T06:58:17.109Z,25.09
2023-04-04T07:00:17.091Z,25.15
2023-04-04T07:02:17.046Z,25.21
2023-04-04T07:04:17.137Z,25.23
2023-04-04T07:06:17.010Z,25.23
2023-04-04T07:08:16.996Z,25.26
2023-04-04T07:10:17.086Z,25.37
2023-04-04T07:12:17.122Z,25.32
2023-04-04T07:14:17.123Z,25.40
2023-04-04T07:16:17.075Z,25.52
2023-04-04T07:18:17.073Z,25.61
2023-04-04T07:20:17.104Z,25.86
2023-04-04T07:22:17.067Z,25.97
2023-04-04T07:24:17.138Z,26.20
2023-04-04T07:26:17.157Z,26.30
2023-04-04T07:28:17.113Z,26.41
2023-04-04T07:30:17.091Z,26.65
2023-04-04T07:32:17.119Z,25.11
2023-04-04T07:34:17.211Z,25.08
2023-04-04T07:36:17.221Z,25.11
2023-04-04T07:38:17.164Z,25.13
2023-04-04T07:40:17.142Z,25.11
2023-04-04T07:42:17.150Z,25.22
2023-04-04T07:44:17.200Z,25.09
2023-04-04T07:46:17.164Z,25.18
2023-04-04T07:48:17.032Z,25.14
2023-04-04T07:50:17.150Z,25.17
2023-04-04T07:52:17.179Z,25.19
2023-04-04T07:54:17.173Z,25.19
2023-04-04T07:56:17.145Z,25.26
2023-04-04T07:58:17.194Z,25.21
2023-04-04T08:00:17.254Z,25.35
2023-04-04T08:02:17.264Z,25.31
2023-04-04T08:04:17.218Z,25.38
2023-04-04T08:06:17.142Z,25.37
2023-04-04T08:08:17.176Z,25.40
2023-04-04T08:10:17.208Z,25.37
2023-04-04T08:12:17.106Z,25.42
2023-04-04T08:14:17.200Z,25.44
2023-04-04T08:16:17.191Z,25.41
2023-04-04T08:18:17.220Z,25.43
2023-04-04T08:20:17.218Z,25.44
2023-04-04T08:22:17.146Z,25.42
2023-04-04T08:24:17.222Z,25.43
2023-04-04T08:26:17.239Z,25.46
2023-04-04T08:28:17.279Z,25.52
2023-04-04T08:30:17.235Z,25.52
2023-04-04T08:32:17.204Z,26.08
2023-04-04T08:34:17.219Z,25.56
2023-04-04T08:36:17.150Z,25.21
2023-04-04T08:38:17.143Z,25.39
2023-04-04T08:40:17.177Z,25.38
2023-04-04T08:42:17.238Z,25.37
2023-04-04T08:44:17.340Z,25.32
2023-04-04T08:46:17.254Z,25.43
2023-04-04T08:48:17.209Z,25.43
2023-04-04T08:50:17.271Z,25.39
2023-04-04T08:52:17.212Z,27.00
2023-04-04T08:54:17.200Z,26.91
2023-04-04T08:56:17.229Z,25.19
2023-04-04T08:58:17.206Z,27.03
2023-04-04T09:00:17.260Z,25.15
2023-04-04T09:02:17.323Z,25.38
2023-04-04T09:04:17.163Z,25.43
2023-04-04T09:06:17.095Z,25.43
2023-04-04T09:08:17.235Z,25.43
2023-04-04T09:10:17.289Z,25.49
2023-04-04T09:12:17.247Z,25.49
2023-04-04T09:14:17.268Z,27.00
2023-04-04T09:16:17.299Z,25.21
2023-04-04T09:18:17.292Z,27.03
2023-04-04T09:20:17.264Z,25.29
2023-04-04T09:22:17.291Z,25.14
2023-04-04T09:24:17.126Z,25.21
2023-04-04T09:26:17.238Z,25.13
2023-04-04T09:28:17.282Z,25.13
2023-04-04T09:30:17.315Z,25.31
2023-04-04T09:32:17.341Z,25.33
2023-04-04T09:34:17.321Z,27.05
2023-04-04T09:36:18.369Z,25.23
2023-04-04T09:38:17.269Z,26.92
2023-04-04T09:40:17.164Z,25.24
2023-04-04T09:42:17.277Z,25.53
2023-04-04T09:44:17.362Z,25.48
2023-04-04T09:46:17.375Z,25.54
2023-04-04T09:48:17.280Z,25.52
2023-04-04T09:50:17.201Z,25.54
2023-04-04T09:52:17.228Z,25.17
2023-04-04T09:54:28.937Z,27.03
2023-04-04T09:56:17.341Z,25.46
2023-04-04T09:58:17.258Z,25.09
2023-04-04T10:00:17.367Z,25.37
2023-04-04T10:02:17.198Z,25.22
2023-04-04T10:04:17.348Z,25.24
2023-04-04T10:06:17.242Z,25.19
2023-04-04T10:08:17.307Z,25.35
2023-04-04T10:10:17.365Z,26.85
2023-04-04T10:12:17.288Z,25.29
2023-04-04T10:14:17.353Z,25.42
2023-04-04T10:16:17.408Z,25.97
2023-04-04T10:18:17.320Z,25.21
2023-04-04T10:20:17.357Z,25.21
2023-04-04T10:22:17.282Z,25.22
2023-04-04T10:24:17.279Z,25.21
2023-04-04T10:26:17.403Z,25.15
2023-04-04T10:28:17.349Z,27.03
2023-04-04T10:30:17.331Z,27.02
2023-04-04T10:32:17.312Z,25.20
2023-04-04T10:34:17.222Z,26.99
2023-04-04T10:36:17.443Z,25.23
2023-04-04T10:38:17.333Z,25.48
2023-04-04T10:40:17.358Z,25.52
2023-04-04T10:42:17.364Z,25.61
2023-04-04T10:44:17.349Z,25.54
2023-04-04T10:46:17.354Z,25.52
2023-04-04T10:48:17.282Z,25.49
2023-04-04T10:50:17.396Z,25.32
2023-04-04T10:52:17.373Z,25.05
2023-04-04T10:54:17.573Z,26.93
2023-04-04T10:56:17.364Z,26.95
2023-04-04T10:58:17.358Z,27.01
2023-04-04T11:00:17.339Z,25.50
2023-04-04T11:02:17.353Z,25.36
2023-04-04T11:04:20.076Z,25.23
2023-04-04T11:06:17.345Z,25.18
2023-04-04T11:08:17.423Z,25.21
2023-04-04T11:10:17.393Z,27.00
2023-04-04T11:12:17.314Z,25.19
2023-04-04T11:14:17.335Z,25.19
2023-04-04T11:16:17.421Z,26.80
2023-04-04T11:18:30.599Z,25.14
2023-04-04T11:20:17.436Z,27.16
2023-04-04T11:22:17.310Z,25.51
2023-04-04T11:24:17.424Z,25.52
2023-04-04T11:26:17.454Z,25.55
2023-04-04T11:28:17.406Z,25.37
2023-04-04T11:30:17.363Z,27.09
2023-04-04T11:32:17.441Z,25.21
2023-04-04T11:34:17.462Z,27.16
2023-04-04T11:36:17.274Z,25.23
2023-04-04T11:38:17.305Z,25.13
2023-04-04T11:40:17.367Z,25.19
2023-04-04T11:42:17.352Z,25.14
2023-04-04T11:44:17.343Z,25.19
2023-04-04T11:46:17.375Z,25.23
2023-04-04T11:48:17.360Z,27.14
2023-04-04T11:50:17.293Z,26.92
2023-04-04T11:52:17.441Z,25.18
2023-04-04T11:54:17.357Z,25.16
2023-04-04T11:56:17.370Z,27.06
2023-04-04T11:58:17.387Z,27.10
2023-04-04T12:00:17.419Z,27.07
2023-04-04T12:02:17.411Z,25.35
2023-04-04T12:04:17.404Z,25.37
2023-04-04T12:06:17.405Z,25.35
2023-04-04T12:08:17.398Z,25.31
2023-04-04T12:10:17.390Z,25.26
2023-04-04T12:12:17.442Z,25.18
2023-04-04T12:14:17.513Z,25.73
2023-04-04T12:16:17.367Z,27.78
2023-04-04T12:18:17.447Z,25.23
2023-04-04T12:20:17.513Z,25.09
2023-04-04T12:22:17.456Z,25.25
2023-04-04T12:24:17.327Z,27.08
2023-04-04T12:26:17.472Z,27.14
2023-04-04T12:28:17.460Z,25.57
2023-04-04T12:30:17.539Z,25.19
2023-04-04T12:32:17.419Z,25.23
2023-04-04T12:34:17.489Z,25.40
2023-04-04T12:36:17.511Z,27.18
2023-04-04T12:38:17.516Z,25.13
2023-04-04T12:40:17.419Z,25.09
2023-04-04T12:42:17.456Z,25.24
2023-04-04T12:44:17.521Z,25.15
2023-04-04T12:46:17.500Z,25.21
2023-04-04T12:48:17.310Z,26.94
2023-04-04T12:50:17.396Z,25.23
2023-04-04T12:52:17.493Z,25.15
2023-04-04T12:54:17.447Z,25.28
2023-04-04T12:56:17.488Z,25.35
2023-04-04T12:58:17.429Z,25.36
2023-04-04T13:00:17.482Z,25.23
2023-04-04T13:02:17.457Z,27.09
2023-04-04T13:04:17.567Z,25.65
2023-04-04T13:06:17.555Z,25.55
2023-04-04T13:08:17.533Z,25.52
2023-04-04T13:10:17.336Z,25.19
2023-04-04T13:12:17.539Z,27.22
2023-04-04T13:14:17.498Z,26.93
2023-04-04T13:16:17.493Z,25.10
2023-04-04T13:18:17.464Z,25.23
2023-04-04T13:20:17.520Z,27.13
2023-04-04T13:22:17.525Z,27.07
2023-04-04T13:24:17.476Z,25.09
2023-04-04T13:26:17.488Z,25.21
2023-04-04T13:28:17.514Z,25.23
2023-04-04T13:30:17.474Z,25.21
2023-04-04T13:32:17.514Z,25.21
2023-04-04T13:34:17.448Z,25.19
2023-04-04T13:36:17.612Z,25.17
2023-04-04T13:38:17.527Z,25.58
2023-04-04T13:40:17.730Z,27.09
2023-04-04T13:42:17.559Z,27.08
2023-04-04T13:44:17.580Z,25.24
2023-04-04T13:46:17.707Z,25.12
2023-04-04T13:48:17.585Z,27.14
2023-04-04T13:50:22.947Z,25.33
2023-04-04T13:52:17.598Z,25.21
2023-04-04T13:54:17.497Z,25.29
2023-04-04T13:56:18.832Z,25.13
2023-04-04T13:58:17.401Z,27.10
2023-04-04T14:00:17.465Z,25.06
2023-04-04T14:02:17.412Z,25.15
2023-04-04T14:04:23.886Z,25.15
2023-04-04T14:06:17.560Z,25.47
2023-04-04T14:08:17.512Z,25.50
2023-04-04T14:10:17.662Z,25.52
2023-04-04T14:12:17.559Z,25.47
2023-04-04T14:14:17.571Z,25.21
2023-04-04T14:16:17.681Z,27.16
2023-04-04T14:18:17.574Z,25.23
2023-04-04T14:20:17.531Z,27.23
2023-04-04T14:22:17.573Z,25.23
2023-04-04T14:24:17.490Z,25.19
2023-04-04T14:26:17.574Z,25.24
2023-04-04T14:28:17.608Z,25.23
2023-04-04T14:30:17.629Z,25.33
2023-04-04T14:32:17.579Z,25.23
2023-04-04T14:34:17.577Z,27.10
2023-04-04T14:36:17.520Z,25.60
2023-04-04T14:38:17.496Z,25.52
2023-04-04T14:40:17.561Z,25.52
2023-04-04T14:42:17.545Z,25.44
2023-04-04T14:44:17.600Z,25.44
2023-04-04T14:46:17.596Z,27.10
2023-04-04T14:48:17.544Z,25.39
2023-04-04T14:50:17.507Z,25.15
2023-04-04T14:52:17.581Z,26.07
2023-04-04T14:54:17.569Z,27.07
2023-04-04T14:56:17.637Z,25.12
2023-04-04T14:58:17.603Z,25.28
2023-04-04T15:00:17.668Z,25.21
2023-04-04T15:02:17.664Z,25.52
2023-04-04T15:04:17.705Z,26.13
2023-04-04T15:06:17.616Z,25.50
2023-04-04T15:08:17.618Z,26.07
2023-04-04T15:10:17.696Z,25.51
2023-04-04T15:12:17.710Z,25.37
2023-04-04T15:14:17.632Z,25.32
2023-04-04T15:16:17.730Z,25.35
2023-04-04T15:18:17.670Z,25.33
2023-04-04T15:20:17.824Z,25.57
2023-04-04T15:22:17.677Z,27.13
2023-04-04T15:24:17.648Z,25.18
2023-04-04T15:26:17.658Z,25.29
2023-04-04T15:28:17.681Z,25.28
2023-04-04T15:30:17.694Z,25.44
2023-04-04T15:32:17.643Z,25.17
2023-04-04T15:34:17.649Z,25.45
2023-04-04T15:36:17.656Z,25.52
2023-04-04T15:38:17.638Z,25.13
2023-04-04T15:40:17.700Z,25.61
2023-04-04T15:42:17.701Z,25.52
2023-04-04T15:44:18.205Z,25.47
2023-04-04T15:46:17.640Z,25.52
2023-04-04T15:48:17.709Z,25.37
2023-04-04T15:50:17.619Z,25.37
2023-04-04T15:52:17.694Z,25.37
2023-04-04T15:54:17.597Z,26.85
2023-04-04T15:56:17.653Z,25.19
2023-04-04T15:58:17.638Z,25.23
2023-04-04T16:00:17.641Z,25.26
2023-04-04T16:02:17.764Z,25.18
2023-04-04T16:04:17.722Z,25.21
2023-04-04T16:06:17.701Z,25.14
2023-04-04T16:08:17.647Z,25.26
2023-04-04T16:10:17.563Z,25.54
2023-04-04T16:12:17.674Z,25.46
2023-04-04T16:14:17.673Z,24.63
2023-04-04T16:16:17.679Z,24.12
2023-04-04T16:18:17.687Z,24.19
2023-04-04T16:20:17.643Z,24.30
2023-04-04T16:22:17.679Z,23.95
2023-04-04T16:24:17.726Z,24.29
2023-04-04T16:26:17.683Z,24.27
2023-04-04T16:28:17.764Z,24.35
2023-04-04T16:30:17.689Z,24.43
2023-04-04T16:32:17.612Z,24.43
2023-04-04T16:34:17.714Z,24.48
2023-04-04T16:36:17.656Z,24.45
2023-04-04T16:38:17.764Z,24.46
2023-04-04T16:40:17.530Z,24.51
2023-04-04T16:42:17.699Z,24.48
2023-04-04T16:44:17.670Z,24.40
2023-04-04T16:46:17.601Z,24.46
2023-04-04T16:48:17.769Z,24.43
2023-04-04T16:50:17.763Z,24.46
2023-04-04T16:52:17.786Z,24.36
2023-04-04T16:54:17.660Z,24.38
2023-04-04T16:56:17.725Z,24.41
2023-04-04T16:58:17.719Z,24.38
2023-04-04T17:00:17.710Z,24.38
2023-04-04T17:02:17.819Z,24.35
2023-04-04T17:04:17.778Z,24.38
2023-04-04T17:06:17.721Z,24.41
2023-04-04T17:08:17.733Z,24.47
2023-04-04T17:10:17.751Z,24.53
2023-04-04T17:12:17.663Z,24.50
2023-04-04T17:14:17.779Z,24.49
2023-04-04T17:16:17.780Z,24.52
2023-04-04T17:18:17.761Z,24.39
2023-04-04T17:20:18.242Z,24.37
2023-04-04T17:22:17.798Z,24.21
2023-04-04T17:24:17.718Z,24.18
2023-04-04T17:26:17.778Z,24.07
2023-04-04T17:28:17.826Z,24.11
2023-04-04T17:30:17.705Z,24.04
2023-04-04T17:32:17.836Z,23.95
2023-04-04T17:34:17.786Z,23.96
2023-04-04T17:36:17.762Z,23.91
2023-04-04T17:38:17.811Z,23.84
2023-04-04T17:40:17.795Z,23.81
2023-04-04T17:42:17.789Z,23.84
2023-04-04T17:44:17.788Z,23.83
2023-04-04T17:46:17.847Z,23.84
2023-04-04T17:48:17.801Z,23.82
2023-04-04T17:50:17.822Z,23.84
2023-04-04T17:52:17.838Z,23.66
2023-04-04T17:54:17.946Z,23.73
2023-04-04T17:56:17.746Z,23.79
2023-04-04T17:58:17.661Z,23.72
2023-04-04T18:00:17.876Z,23.84
2023-04-04T18:02:17.700Z,23.89
2023-04-04T18:04:17.872Z,24.04
2023-04-04T18:06:17.832Z,23.98
2023-04-04T18:08:17.816Z,23.96
2023-04-04T18:10:17.816Z,24.04
2023-04-04T18:12:17.890Z,24.04
2023-04-04T18:14:17.752Z,24.01
2023-04-04T18:16:17.877Z,23.98
2023-04-04T18:18:17.800Z,24.04
2023-04-04T18:20:27.736Z,23.98
2023-04-04T18:22:17.774Z,24.07
2023-04-04T18:24:17.793Z,24.07
2023-04-04T18:26:17.670Z,27.19
2023-04-04T18:28:17.765Z,27.22
2023-04-04T18:30:17.874Z,25.81
2023-04-04T18:32:17.765Z,25.64
2023-04-04T18:34:17.920Z,25.63
2023-04-04T18:36:17.878Z,25.65
2023-04-04T18:38:17.796Z,25.65
2023-04-04T18:40:17.853Z,25.65
2023-04-04T18:42:17.901Z,25.62
2023-04-04T18:44:17.866Z,25.65
2023-04-04T18:46:17.929Z,25.65
2023-04-04T18:48:17.821Z,25.65
2023-04-04T18:50:17.833Z,25.75
2023-04-04T18:52:17.872Z,25.63
2023-04-04T18:54:17.769Z,25.65
2023-04-04T18:56:17.860Z,25.71
2023-04-04T18:58:17.885Z,25.61
2023-04-04T19:00:17.835Z,25.71
2023-04-04T19:02:17.754Z,25.65
2023-04-04T19:04:17.864Z,25.72
2023-04-04T19:06:17.996Z,25.54
2023-04-04T19:08:18.020Z,25.52
2023-04-04T19:10:17.983Z,25.65
2023-04-04T19:12:17.810Z,25.56
2023-04-04T19:14:17.896Z,25.80
2023-04-04T19:16:17.873Z,25.65
2023-04-04T19:18:17.987Z,25.57
2023-04-04T19:20:17.870Z,25.77
2023-04-04T19:22:17.917Z,25.58
2023-04-04T19:24:17.911Z,25.62
2023-04-04T19:26:18.418Z,25.57
2023-04-04T19:28:17.891Z,25.65
2023-04-04T19:30:17.953Z,25.56
2023-04-04T19:32:17.945Z,25.62
2023-04-04T19:34:17.866Z,25.72
2023-04-04T19:36:17.941Z,25.75
2023-04-04T19:38:17.956Z,25.65
2023-04-04T19:40:17.862Z,25.54
2023-04-04T19:42:17.952Z,25.73
2023-04-04T19:44:18.002Z,25.50
2023-04-04T19:46:17.952Z,25.58
2023-04-04T19:48:17.872Z,25.65
2023-04-04T19:50:17.979Z,25.54
2023-04-04T19:52:18.025Z,25.56
2023-04-04T19:54:17.848Z,25.52
2023-04-04T19:56:18.037Z,25.57
2023-04-04T19:58:17.990Z,25.58
2023-04-04T20:00:17.992Z,25.62
2023-04-04T20:02:18.039Z,25.56
2023-04-04T20:04:18.024Z,25.52
2023-04-04T20:06:18.029Z,25.63
2023-04-04T20:08:18.023Z,25.55
2023-04-04T20:10:18.053Z,25.58
2023-04-04T20:12:19.131Z,25.74
2023-04-04T20:14:17.979Z,25.65
2023-04-04T20:16:18.023Z,25.79
2023-04-04T20:18:18.030Z,25.58
2023-04-04T20:20:18.056Z,25.52
2023-04-04T20:22:18.079Z,25.61
2023-04-04T20:24:18.030Z,25.55
2023-04-04T20:26:18.075Z,23.80
2023-04-04T20:28:17.969Z,25.55
2023-04-04T20:30:17.976Z,25.54
2023-04-04T20:32:17.934Z,25.74
2023-04-04T20:34:17.944Z,25.65
2023-04-04T20:36:18.040Z,25.64
2023-04-04T20:38:17.935Z,25.65
2023-04-04T20:40:17.938Z,25.75
2023-04-04T20:42:17.970Z,25.77
2023-04-04T20:44:17.999Z,25.65
2023-04-04T20:46:17.997Z,25.64
2023-04-04T20:48:18.087Z,25.65
2023-04-04T20:50:17.998Z,25.71
2023-04-04T20:52:18.013Z,25.74
2023-04-04T20:54:17.989Z,25.65
2023-04-04T20:56:17.941Z,25.63
2023-04-04T20:58:18.024Z,25.64
2023-04-04T21:00:17.960Z,25.62
2023-04-04T21:02:17.965Z,25.65
2023-04-04T21:04:17.932Z,25.65
2023-04-04T21:06:17.949Z,25.78
2023-04-04T21:08:17.988Z,25.64
2023-04-04T21:10:18.190Z,25.57
2023-04-04T21:12:18.033Z,25.65
2023-04-04T21:14:17.964Z,25.72
2023-04-04T21:16:18.002Z,25.65
2023-04-04T21:18:17.988Z,25.63
2023-04-04T21:20:17.938Z,25.71
2023-04-04T21:22:18.033Z,25.65
2023-04-04T21:24:18.037Z,25.78
2023-04-04T21:26:18.036Z,25.63
2023-04-04T21:28:18.150Z,25.79
2023-04-04T21:30:18.044Z,25.61
2023-04-04T21:32:17.920Z,25.61
2023-04-04T21:34:18.107Z,25.60
2023-04-04T21:36:18.111Z,25.60
2023-04-04T21:38:17.997Z,25.71
2023-04-04T21:40:17.947Z,25.61
2023-04-04T21:42:18.077Z,25.63
2023-04-04T21:44:17.857Z,25.65
2023-04-04T21:46:18.048Z,25.65
2023-04-04T21:48:18.021Z,25.78
2023-04-04T21:50:18.014Z,25.76
2023-04-04T21:52:18.037Z,25.61
2023-04-04T21:54:18.051Z,25.61
2023-04-04T21:56:18.069Z,25.63
2023-04-04T21:58:18.062Z,25.62
2023-04-04T22:00:17.998Z,25.65
2023-04-04T22:02:17.994Z,25.61
2023-04-04T22:04:18.004Z,25.79
2023-04-04T22:06:18.169Z,25.62
2023-04-04T22:08:18.065Z,25.78
2023-04-04T22:10:18.053Z,25.75
2023-04-04T22:12:18.090Z,25.61
2023-04-04T22:14:18.470Z,25.72
2023-04-04T22:16:18.101Z,25.64
2023-04-04T22:18:18.057Z,25.65
2023-04-04T22:20:18.068Z,25.64
2023-04-04T22:22:17.997Z,25.70
2023-04-04T22:24:18.737Z,25.64
2023-04-04T22:26:18.070Z,25.61
2023-04-04T22:28:18.106Z,25.74
2023-04-04T22:30:18.090Z,25.63
2023-04-04T22:32:18.092Z,25.60
2023-04-04T22:34:18.000Z,25.65
2023-04-04T22:36:18.110Z,25.65
2023-04-04T22:38:18.084Z,25.77
2023-04-04T22:40:18.097Z,25.65
2023-04-04T22:42:18.019Z,25.75
2023-04-04T22:44:18.054Z,25.64
2023-04-04T22:46:18.098Z,25.65
2023-04-04T22:48:18.129Z,25.64
2023-04-04T22:50:18.057Z,25.63
2023-04-04T22:52:18.089Z,25.65
2023-04-04T22:54:17.926Z,25.65
2023-04-04T22:56:18.037Z,25.78
2023-04-04T22:58:18.109Z,25.64
2023-04-04T23:00:18.147Z,25.65
2023-04-04T23:02:18.135Z,25.65
2023-04-04T23:04:18.207Z,25.65
2023-04-04T23:06:19.855Z,25.78
2023-04-04T23:08:18.180Z,25.58
2023-04-04T23:10:18.047Z,25.65
2023-04-04T23:12:18.169Z,25.65
2023-04-04T23:14:18.106Z,25.72
2023-04-04T23:16:18.272Z,25.79
2023-04-04T23:18:18.087Z,25.72
2023-04-04T23:20:18.185Z,25.46
2023-04-04T23:22:18.154Z,25.65
2023-04-04T23:24:18.198Z,25.60
2023-04-04T23:26:18.211Z,25.65
2023-04-04T23:28:18.133Z,25.74
2023-04-04T23:30:18.101Z,25.78
2023-04-04T23:32:18.194Z,25.63
2023-04-04T23:34:18.163Z,25.61
2023-04-04T23:36:18.234Z,25.62
2023-04-04T23:38:18.163Z,25.75
2023-04-04T23:40:18.171Z,25.62
2023-04-04T23:42:18.164Z,25.65
2023-04-04T23:44:18.113Z,25.65
2023-04-04T23:46:18.324Z,25.65
2023-04-04T23:48:18.221Z,25.65
2023-04-04T23:50:18.172Z,25.65
2023-04-04T23:52:18.156Z,25.59
2023-04-04T23:54:18.155Z,25.72
2023-04-04T23:56:18.184Z,25.65
2023-04-04T23:58:18.193Z,25.70
